メインページ
METAR-TAF:

METAR-TAF

空港 :

パリチャールズ・ドゴール, フランス

パリ=シャルル・ド・ゴール空港

緯度: 49-01N, 経度: 002-32E, 海抜: 118m

現時点の気象観測

当レポートは18分前の09:30(UTC)に作成
北東の風 15kt、北/北東からの間で変化する
気温 11°C
湿度 62%
気圧 1022 hPa
視程10km以上
1,500メートル以下は雲なし、積乱雲なし

METAR: LFPG 250930Z 05015KT 030V090 CAVOK 11/04 Q1022 NOSIG

時間: 10:48 (09:48 UTC)

予報

当レポートは4時間48分前の05:00(UTC)に作成
予報は25日の 06時(UTC)から 26日の 12時(UTC)まで有効
北東の風 10kt
視程10km以上
1,500メートル以下は雲なし、積乱雲なし
25日の 09時(UTC)から 25日の 19時(UTC)まで一時的に
北東の風 15kt、最大30ktの突風を伴う
確率 40% :
26日の 00時(UTC)から 26日の 12時(UTC)まで一時的に
高度4000ftの千切れ雲あり

TAF: LFPG 250500Z 2506/2612 05010KT CAVOK TEMPO 2509/2519 05015G30KT PROB40 TEMPO 2600/2612 BKN040 TX17/2515Z TN06/2506Z

4,000以上の空港の気象観測と天気予報(METAR報とTAF報)

利用可能な観測所は地図上に黄色い丸と赤い丸で示す。

丸の上にカーソルを重ねると観測所名を参照できる。

次にクリックすると気象観測と天気予報を参照できる。

マップの切り替え:黒色「×」印の緑ボタンをクリックして拡大、「-」印の緑ボタンをクリックして縮小、緑色の三角印をクリックして隣りの地図に切り替え


METAR-TAF: